Time;durP1;ratioP1;P1;durP2;ratioP2;P2;SDS_P1;SDS_P2;PMS_P1;PMS_P2;Temp;Humidity;BMP_temperature;BMP_pressure;BME280_temperature;BME280_humidity;BME280_pressure;Samples;Min_cycle;Max_cycle;Signal;HPM_P1;HPM_P2
2022/10/25 00:02:02;;;;;;;;;;;;;;;;;;;;;
2022/10/25 00:09:47;;;;;;;;;;;;;;;;;;;;;
2022/10/25 00:17:18;;;;;;;;;;;;;;;;;;;;;
2022/10/25 00:20:29;;;;;;;15.00;12.60;;;;;;;15.52;72.74;100200.48;108514;1283;22646;-84
2022/10/25 00:24:03;;;;;;;;;;;;;;;;;;;;;
2022/10/25 00:38:24;;;;;;;15.40;10.20;;;;;;;16.85;68.27;100206.91;106165;1301;547979;-83
2022/10/25 00:42:09;;;;;;;;;;;;;;;;;;;;;
2022/10/25 00:45:40;;;;;;;12.80;8.50;;;;;;;16.19;68.53;100209.55;108046;1286;21954;-81
2022/10/25 00:48:36;;;;;;;16.10;10.10;;;;;;;15.85;69.47;100210.29;107482;1291;23155;-81
2022/10/25 00:52:19;;;;;;;12.50;9.20;;;;;;;15.62;70.43;100213.41;107000;1297;21967;-81
2022/10/25 00:55:48;;;;;;;;;;;;;;;;;;;;;
2022/10/25 00:59:03;;;;;;;;;;;;;;;;;;;;;
2022/10/25 01:03:00;;;;;;;15.80;10.30;;;;;;;15.44;71.78;100209.95;106900;1301;22023;-85
2022/10/25 01:06:11;;;;;;;15.50;9.50;;;;;;;15.42;71.92;100206.93;106318;1298;21970;-81
2022/10/25 01:09:56;;;;;;;;;;;;;;;;;;;;;
2022/10/25 01:13:17;;;;;;;;;;;;;;;;;;;;;
2022/10/25 01:17:03;;;;;;;13.50;9.40;;;;;;;15.16;72.20;100200.36;107060;1296;21963;-82
2022/10/25 01:20:43;;;;;;;;;;;;;;;;;;;;;
2022/10/25 01:25:08;;;;;;;;;;;;;;;;;;;;;
2022/10/25 01:29:04;;;;;;;13.20;9.50;;;;;;;15.02;72.86;100204.37;107015;1296;21976;-83
2022/10/25 01:33:10;;;;;;;;;;;;;;;;;;;;;
2022/10/25 01:36:43;;;;;;;;;;;;;;;;;;;;;
2022/10/25 01:43:49;;;;;;;;;;;;;;;;;;;;;
2022/10/25 01:51:24;;;;;;;12.50;9.70;;;;;;;14.85;72.81;100192.77;107630;1292;23718;-83
2022/10/25 01:54:44;;;;;;;;;;;;;;;;;;;;;
2022/10/25 01:58:22;;;;;;;16.80;10.80;;;;;;;14.68;72.83;100200.02;107727;1291;21960;-81
2022/10/25 02:02:26;;;;;;;;;;;;;;;;;;;;;
2022/10/25 02:06:20;;;;;;;;;;;;;;;;;;;;;
2022/10/25 02:10:00;;;;;;;;;;;;;;;;;;;;;
2022/10/25 02:13:42;;;;;;;12.40;10.20;;;;;;;14.40;73.25;100187.92;106414;1302;22037;-84
2022/10/25 02:17:09;;;;;;;;;;;;;;;;;;;;;
2022/10/25 02:20:08;;;;;;;10.80;8.90;;;;;;;14.32;73.35;100191.16;106618;1301;22398;-84
2022/10/25 02:23:31;;;;;;;14.50;8.80;;;;;;;14.28;73.40;100190.88;107147;1295;21944;-84
2022/10/25 02:27:22;;;;;;;13.10;9.10;;;;;;;14.22;73.51;100194.85;107589;1289;22018;-82
2022/10/25 02:31:22;;;;;;;10.10;8.30;;;;;;;14.16;73.48;100192.75;108008;1283;21952;-81
2022/10/25 02:34:45;;;;;;;;;;;;;;;;;;;;;
2022/10/25 02:38:22;;;;;;;10.40;8.50;;;;;;;14.06;73.71;100184.89;107726;1292;23624;-80
2022/10/25 02:42:32;;;;;;;;;;;;;;;;;;;;;
2022/10/25 02:45:59;;;;;;;;;;;;;;;;;;;;;
2022/10/25 02:49:50;;;;;;;16.00;9.30;;;;;;;13.92;73.96;100183.59;106982;1294;23636;-80
2022/10/25 02:53:29;;;;;;;11.30;8.90;;;;;;;13.87;74.11;100184.00;107520;1288;21964;-80
2022/10/25 02:57:20;;;;;;;;;;;;;;;;;;;;;
2022/10/25 03:01:13;;;;;;;13.20;8.60;;;;;;;13.80;74.05;100194.35;107427;1294;23853;-80
2022/10/25 03:04:53;;;;;;;;;;;;;;;;;;;;;
2022/10/25 03:07:35;;;;;;;;;;;;;;;;;;;;;
2022/10/25 03:15:40;;;;;;;;;;;;;;;;;;;;;
2022/10/25 03:19:24;;;;;;;;;;;;;;;;;;;;;
2022/10/25 03:22:33;;;;;;;9.80;8.40;;;;;;;13.85;74.48;100195.33;108058;1285;21980;-81
2022/10/25 03:27:05;;;;;;;;;;;;;;;;;;;;;
2022/10/25 03:30:36;;;;;;;;;;;;;;;;;;;;;
2022/10/25 03:33:51;;;;;;;;;;;;;;;;;;;;;
2022/10/25 03:37:24;;;;;;;9.60;7.90;;;;;;;13.83;74.57;100180.55;107558;1292;23714;-82
2022/10/25 03:41:30;;;;;;;;;;;;;;;;;;;;;
2022/10/25 03:45:09;;;;;;;;;;;;;;;;;;;;;
2022/10/25 03:48:40;;;;;;;;;;;;;;;;;;;;;
2022/10/25 03:51:48;;;;;;;8.30;6.10;;;;;;;13.93;74.17;100182.81;108033;1287;21949;-81
2022/10/25 03:55:25;;;;;;;8.60;6.60;;;;;;;13.89;74.13;100185.49;108504;1280;23029;-81
2022/10/25 03:58:56;;;;;;;;;;;;;;;;;;;;;
2022/10/25 04:02:59;;;;;;;11.70;8.50;;;;;;;13.80;74.24;100189.84;104676;1277;5353306;-80
2022/10/25 04:06:38;;;;;;;11.00;7.00;;;;;;;13.77;74.39;100194.17;108228;1284;22270;-80
2022/10/25 04:10:22;;;;;;;11.10;7.30;;;;;;;13.78;74.49;100197.24;107570;1288;21997;-80
2022/10/25 04:14:11;;;;;;;;;;;;;;;;;;;;;
2022/10/25 04:17:37;;;;;;;;;;;;;;;;;;;;;
2022/10/25 04:20:37;;;;;;;12.80;7.10;;;;;;;13.85;74.54;100193.21;108003;1285;21970;-80
2022/10/25 04:28:25;;;;;;;12.70;8.00;;;;;;;13.88;74.49;100195.86;106717;1298;23630;-80
2022/10/25 04:31:17;;;;;;;10.80;8.10;;;;;;;13.92;74.30;100193.56;106467;1298;22403;-78
2022/10/25 04:33:57;;;;;;;10.00;6.80;;;;;;;13.94;74.32;100197.44;106644;1298;22006;-79
2022/10/25 04:40:17;;;;;;;12.60;6.90;;;;;;;13.98;74.34;100197.40;105907;1304;22004;-82
2022/10/25 04:43:12;;;;;;;;;;;;;;;;;;;;;
2022/10/25 04:46:42;;;;;;;;;;;;;;;;;;;;;
2022/10/25 04:50:06;;;;;;;20.90;12.80;;;;;;;13.93;73.92;100191.20;107047;1297;22308;-81
2022/10/25 04:53:26;;;;;;;14.70;9.60;;;;;;;13.91;73.88;100195.86;107037;1295;22221;-81
2022/10/25 04:57:09;;;;;;;11.30;8.20;;;;;;;13.85;73.92;100194.24;107117;1297;21987;-81
2022/10/25 05:00:28;;;;;;;12.50;9.40;;;;;;;13.80;73.83;100196.50;107008;1297;22117;-81
2022/10/25 05:03:52;;;;;;;;;;;;;;;;;;;;;
2022/10/25 05:07:31;;;;;;;;;;;;;;;;;;;;;
2022/10/25 05:15:22;;;;;;;;;;;;;;;;;;;;;
2022/10/25 05:18:14;;;;;;;;;;;;;;;13.62;73.73;100214.69;105640;1312;22154;-80
2022/10/25 05:21:29;;;;;;;18.70;9.90;;;;;;;13.52;73.83;100219.27;105517;1315;22452;-81
2022/10/25 05:24:34;;;;;;;;;;;;;;;;;;;;;
2022/10/25 05:27:36;;;;;;;13.80;9.90;;;;;;;13.45;73.90;100211.93;105938;1309;23646;-82
2022/10/25 05:30:13;;;;;;;11.40;8.50;;;;;;;13.49;73.91;100221.13;105885;1310;22052;-82
2022/10/25 05:33:28;;;;;;;;;;;;;;;;;;;;;
2022/10/25 05:36:27;;;;;;;;;;;;;;;;;;;;;
2022/10/25 05:39:19;;;;;;;;;;;;;;;;;;;;;
2022/10/25 05:42:05;;;;;;;;;;;;;;;;;;;;;
2022/10/25 05:44:58;;;;;;;;;;;;;;;;;;;;;
2022/10/25 05:47:40;;;;;;;12.20;10.10;;;;;;;13.47;73.75;100240.70;106393;1303;23624;-84
2022/10/25 05:50:15;;;;;;;11.10;9.90;;;;;;;13.47;73.69;100243.30;106300;1304;21963;-85
2022/10/25 05:56:09;;;;;;;12.20;10.50;;;;;;;13.44;73.78;100244.50;107668;1294;23601;-86
2022/10/25 05:59:07;;;;;;;;;;;;;;;;;;;;;
2022/10/25 06:02:26;;;;;;;;;;;;;;;;;;;;;
2022/10/25 06:09:51;;;;;;;10.60;8.10;;;;;;;13.36;74.03;100263.95;108681;1280;23048;-82
2022/10/25 06:12:27;;;;;;;13.70;7.70;;;;;;;13.39;74.11;100265.91;108464;1280;21973;-81
2022/10/25 06:15:54;;;;;;;;;;;;;;;;;;;;;
2022/10/25 06:19:56;;;;;;;;;;;;;;;;;;;;;
2022/10/25 06:23:42;;;;;;;19.60;14.30;;;;;;;13.46;74.22;100265.17;108318;1277;21965;-78
2022/10/25 06:26:59;;;;;;;16.00;11.20;;;;;;;13.50;74.46;100268.13;108411;1280;22167;-80
2022/10/25 06:30:28;;;;;;;14.00;8.30;;;;;;;13.56;74.23;100272.35;108490;1280;23680;-80
2022/10/25 06:37:52;;;;;;;10.70;8.10;;;;;;;13.67;74.50;100280.40;107819;1288;22191;-80
2022/10/25 06:41:26;;;;;;;10.80;9.20;;;;;;;13.79;74.52;100281.86;108004;1289;21999;-81
2022/10/25 06:44:56;;;;;;;26.40;19.70;;;;;;;13.94;74.49;100288.95;107987;1289;23662;-80
2022/10/25 06:47:49;;;;;;;;;;;;;;;;;;;;;
2022/10/25 06:51:17;;;;;;;11.80;8.70;;;;;;;14.16;74.04;100285.13;107967;1286;22100;-79
2022/10/25 06:54:30;;;;;;;12.40;8.40;;;;;;;14.27;73.77;100286.17;108086;1286;22064;-80
2022/10/25 06:58:18;;;;;;;12.20;7.20;;;;;;;14.33;73.33;100281.29;107870;1286;21948;-80
2022/10/25 07:01:30;;;;;;;10.30;7.30;;;;;;;14.36;73.12;100287.21;108149;1285;21956;-80
2022/10/25 07:05:01;;;;;;;9.20;7.30;;;;;;;14.39;72.70;100289.00;107597;1291;21974;-82
2022/10/25 07:08:04;;;;;;;14.30;8.60;;;;;;;14.39;72.56;100285.30;106746;1300;22742;-80
2022/10/25 07:11:14;;;;;;;;;;;;;;;;;;;;;
2022/10/25 07:14:04;;;;;;;13.20;7.80;;;;;;;14.50;72.31;100284.91;106637;1297;21994;-80
2022/10/25 07:16:50;;;;;;;13.90;7.00;;;;;;;14.58;72.28;100290.94;106872;1297;23706;-80
2022/10/25 07:19:56;;;;;;;10.70;7.40;;;;;;;14.70;72.54;100293.95;106873;1297;22003;-80
2022/10/25 07:23:26;;;;;;;13.90;7.30;;;;;;;14.87;72.38;100295.14;107501;1291;22731;-80
2022/10/25 07:26:50;;;;;;;10.50;6.70;;;;;;;15.04;72.32;100299.05;107667;1288;22733;-80
2022/10/25 07:30:03;;;;;;;11.00;5.30;;;;;;;15.28;72.29;100300.36;107839;1288;21949;-79
2022/10/25 07:33:06;;;;;;;11.80;7.00;;;;;;;15.54;71.51;100295.98;107822;1286;21949;-80
2022/10/25 07:36:05;;;;;;;11.70;6.10;;;;;;;15.78;71.19;100302.63;107713;1285;23102;-80
2022/10/25 07:39:07;;;;;;;10.40;5.70;;;;;;;16.07;70.87;100304.58;107834;1288;21978;-80
2022/10/25 07:42:12;;;;;;;11.70;6.20;;;;;;;16.29;69.70;100308.13;107725;1288;21953;-79
2022/10/25 07:45:40;;;;;;;13.10;7.50;;;;;;;16.40;68.86;100307.83;108255;1283;23374;-80
2022/10/25 07:48:27;;;;;;;13.20;8.10;;;;;;;16.57;68.57;100307.27;108415;1283;21947;-82
2022/10/25 07:51:31;;;;;;;;;;;;;;;;;;;;;
2022/10/25 07:55:13;;;;;;;11.20;7.70;;;;;;;17.06;68.09;100309.44;108074;1286;23579;-80
2022/10/25 07:58:24;;;;;;;13.60;9.40;;;;;;;17.39;67.29;100314.84;107955;1286;23720;-80
2022/10/25 08:05:00;;;;;;;11.40;7.70;;;;;;;17.84;65.24;100317.93;107569;1288;23076;-80
2022/10/25 08:08:18;;;;;;;7.40;5.30;;;;;;;17.98;64.24;100320.73;107057;1297;22044;-80
2022/10/25 08:15:01;;;;;;;12.00;4.40;;;;;;;18.09;62.45;100322.92;106178;1303;21970;-80
2022/10/25 08:17:50;;;;;;;;;;;;;;;;;;;;;
2022/10/25 08:21:07;;;;;;;10.10;4.80;;;;;;;17.92;61.86;100322.52;106177;1303;22030;-79
2022/10/25 08:23:51;;;;;;;8.80;4.50;;;;;;;17.88;62.26;100319.27;106300;1303;21955;-80
2022/10/25 08:26:41;;;;;;;10.10;4.70;;;;;;;17.91;62.53;100317.31;106213;1303;22012;-79
2022/10/25 08:29:43;;;;;;;12.90;4.80;;;;;;;17.89;62.15;100319.21;106285;1303;21986;-82
2022/10/25 08:32:27;;;;;;;7.10;3.60;;;;;;;17.84;62.00;100322.71;106252;1303;23760;-79
2022/10/25 08:35:14;;;;;;;9.30;3.90;;;;;;;17.80;62.05;100321.40;106032;1303;22047;-80
2022/10/25 08:38:18;;;;;;;18.90;7.00;;;;;;;17.77;62.44;100326.99;106181;1303;22021;-80
2022/10/25 08:41:52;;;;;;;9.40;3.90;;;;;;;17.72;62.26;100329.50;106542;1292;23618;-79
2022/10/25 08:44:58;;;;;;;7.70;4.20;;;;;;;17.66;62.20;100332.54;107317;1292;22010;-80
2022/10/25 08:48:28;;;;;;;10.10;4.10;;;;;;;17.64;62.33;100340.09;107503;1292;21970;-79
2022/10/25 08:51:32;;;;;;;11.40;2.90;;;;;;;17.63;62.38;100336.63;107705;1283;22258;-80
2022/10/25 08:54:16;;;;;;;7.10;4.60;;;;;;;17.66;62.48;100331.69;108849;1274;21976;-80
2022/10/25 08:57:55;;;;;;;10.00;4.20;;;;;;;17.69;62.48;100331.08;108463;1280;21953;-80
2022/10/25 09:00:56;;;;;;;7.70;3.20;;;;;;;17.75;62.54;100333.00;108229;1278;23718;-80
2022/10/25 09:04:50;;;;;;;6.30;2.90;;;;;;;17.76;62.17;100333.11;108535;1280;21934;-80
2022/10/25 09:08:16;;;;;;;7.00;4.20;;;;;;;17.71;62.07;100340.44;107854;1289;23442;-80
2022/10/25 09:11:11;;;;;;;9.40;3.50;;;;;;;17.74;62.42;100339.53;108064;1278;21943;-80
2022/10/25 09:14:37;;;;;;;7.10;3.50;;;;;;;17.85;62.40;100338.48;108103;1283;23232;-79
2022/10/25 09:22:28;;;;;;;13.40;3.70;;;;;;;18.14;62.01;100350.96;107805;1282;21926;-80
2022/10/25 09:25:56;;;;;;;9.40;3.10;;;;;;;18.19;61.31;100353.41;107281;1295;22436;-80
2022/10/25 09:29:12;;;;;;;8.20;3.00;;;;;;;18.11;60.63;100358.88;107249;1291;23699;-81
2022/10/25 09:31:56;;;;;;;9.30;4.10;;;;;;;17.96;60.48;100359.20;107200;1295;23562;-80
2022/10/25 09:34:56;;;;;;;10.10;4.80;;;;;;;17.87;60.86;100359.66;107198;1295;21997;-79
2022/10/25 09:38:24;;;;;;;8.10;3.90;;;;;;;17.80;60.71;100364.49;107224;1292;22103;-80
2022/10/25 09:41:25;;;;;;;10.20;4.40;;;;;;;17.71;61.06;100363.53;107415;1292;21932;-79
2022/10/25 09:45:14;;;;;;;12.20;4.60;;;;;;;17.73;61.42;100367.27;107774;1292;21971;-80
2022/10/25 09:53:32;;;;;;;10.00;4.10;;;;;;;17.91;61.75;100362.36;107010;1295;21964;-79
2022/10/25 09:56:40;;;;;;;9.10;3.90;;;;;;;18.07;61.39;100360.06;106421;1297;22102;-80
2022/10/25 09:59:43;;;;;;;7.20;3.60;;;;;;;18.22;60.96;100361.09;107326;1292;23628;-79
2022/10/25 10:03:20;;;;;;;9.80;4.20;;;;;;;18.39;60.68;100364.20;107396;1294;22500;-79
2022/10/25 10:07:12;;;;;;;;;;;;;;;18.54;60.29;100362.28;106885;1300;23743;-80
2022/10/25 10:10:44;;;;;;;9.00;3.20;;;;;;;18.64;60.03;100361.89;106141;1306;22677;-80
2022/10/25 10:13:54;;;;;;;9.10;3.90;;;;;;;18.90;59.84;100363.57;105935;1306;22007;-79
2022/10/25 10:16:30;;;;;;;;;;;;;;;19.11;58.97;100359.09;106011;1309;21984;-80
2022/10/25 10:19:29;;;;;;;8.50;3.90;;;;;;;19.16;58.43;100362.78;106099;1303;23858;-80
2022/10/25 10:22:30;;;;;;;15.70;6.10;;;;;;;19.23;57.94;100366.64;106074;1303;22628;-81
2022/10/25 10:25:29;;;;;;;10.40;4.40;;;;;;;19.41;58.07;100363.77;106203;1303;23090;-80
2022/10/25 10:28:31;;;;;;;8.20;4.80;;;;;;;19.53;57.25;100356.67;106242;1303;23086;-79
2022/10/25 10:31:05;;;;;;;10.50;4.70;;;;;;;19.43;56.49;100356.14;106257;1301;21975;-78
2022/10/25 10:33:38;;;;;;;9.10;5.10;;;;;;;19.29;56.50;100358.59;106529;1300;24448;-78
2022/10/25 10:36:27;;;;;;;8.60;6.20;;;;;;;19.27;56.71;100359.65;106576;1299;22293;-79
2022/10/25 10:39:20;;;;;;;9.90;4.10;;;;;;;19.13;56.42;100364.41;106571;1299;22076;-79
2022/10/25 10:42:35;;;;;;;8.30;3.50;;;;;;;18.95;56.50;100365.35;106543;1294;21963;-79
2022/10/25 10:45:06;;;;;;;4.80;2.70;;;;;;;18.70;56.65;100366.25;106874;1297;21973;-79
2022/10/25 10:47:45;;;;;;;8.70;3.50;;;;;;;18.55;57.08;100372.42;106600;1297;23622;-79
2022/10/25 10:50:34;;;;;;;6.40;3.40;;;;;;;18.43;57.46;100373.40;107194;1294;21954;-78
2022/10/25 10:53:28;;;;;;;13.50;6.50;;;;;;;18.42;57.94;100371.17;107031;1297;21977;-79
2022/10/25 10:56:22;;;;;;;12.30;9.80;;;;;;;18.52;58.63;100367.15;106846;1297;21971;-80
2022/10/25 10:58:59;;;;;;;14.60;5.60;;;;;;;18.67;58.65;100367.98;106961;1293;21957;-81
2022/10/25 11:01:34;;;;;;;6.00;4.00;;;;;;;18.72;58.16;100367.64;106954;1295;23064;-81
2022/10/25 11:04:07;;;;;;;6.30;4.20;;;;;;;18.72;57.99;100370.13;106980;1298;21955;-79
2022/10/25 11:07:13;;;;;;;8.40;3.80;;;;;;;18.73;58.10;100372.89;107232;1292;21960;-81
2022/10/25 11:09:44;;;;;;;8.00;3.50;;;;;;;18.67;57.90;100373.81;107547;1291;22580;-79
2022/10/25 11:12:17;;;;;;;8.50;4.70;;;;;;;18.60;57.66;100376.27;108030;1286;22150;-83
2022/10/25 11:15:02;;;;;;;17.00;6.50;;;;;;;18.54;57.82;100380.39;107526;1294;21974;-78
2022/10/25 11:17:37;;;;;;;10.30;6.10;;;;;;;18.50;58.15;100382.95;107255;1292;23704;-79
2022/10/25 11:20:44;;;;;;;13.20;7.20;;;;;;;18.50;58.31;100384.40;107284;1294;22186;-78
2022/10/25 11:23:35;;;;;;;11.80;8.40;;;;;;;18.45;58.31;100383.63;107754;1289;22517;-78
2022/10/25 11:26:33;;;;;;;19.40;8.10;;;;;;;18.37;58.31;100378.76;107784;1286;23771;-77
2022/10/25 11:29:33;;;;;;;9.00;5.50;;;;;;;18.30;58.54;100382.75;107980;1286;21999;-79
2022/10/25 11:33:00;;;;;;;8.60;4.60;;;;;;;18.30;58.96;100381.70;108316;1284;23604;-79
2022/10/25 11:37:15;;;;;;;12.50;8.20;;;;;;;18.24;59.10;100382.46;107401;1292;22014;-83
2022/10/25 11:40:55;;;;;;;15.60;11.80;;;;;;;18.25;59.50;100380.96;106552;1301;23782;-81
2022/10/25 11:44:12;;;;;;;8.90;7.70;;;;;;;18.37;59.61;100388.64;106136;1300;21969;-79
2022/10/25 11:47:28;;;;;;;12.00;8.00;;;;;;;18.44;59.48;100388.85;106263;1306;22923;-80
2022/10/25 11:50:45;;;;;;;12.80;6.20;;;;;;;18.53;59.55;100390.30;106031;1306;21977;-79
2022/10/25 11:53:40;;;;;;;10.20;4.30;;;;;;;18.54;59.35;100390.25;106099;1303;21932;-80
2022/10/25 11:56:41;;;;;;;7.80;3.80;;;;;;;18.53;59.25;100390.66;106632;1301;21984;-79
2022/10/25 12:00:09;;;;;;;10.80;4.00;;;;;;;18.48;58.98;100393.45;106275;1303;22013;-78
2022/10/25 12:03:26;;;;;;;9.40;5.00;;;;;;;18.39;58.97;100390.91;106286;1306;21970;-79
2022/10/25 12:06:44;;;;;;;10.00;4.60;;;;;;;18.37;59.27;100390.59;106413;1302;23099;-79
2022/10/25 12:09:52;;;;;;;7.90;3.50;;;;;;;18.41;59.41;100394.35;105975;1298;21979;-78
2022/10/25 12:12:41;;;;;;;9.60;4.60;;;;;;;18.36;59.28;100393.77;106234;1298;24271;-77
2022/10/25 12:15:42;;;;;;;8.70;5.90;;;;;;;18.27;59.40;100393.00;106251;1303;21965;-80
2022/10/25 12:18:45;;;;;;;9.00;4.80;;;;;;;18.20;60.00;100395.28;106754;1294;23882;-80
2022/10/25 12:21:29;;;;;;;11.50;3.90;;;;;;;18.16;60.49;100394.32;107239;1294;21957;-80
2022/10/25 12:24:16;;;;;;;10.00;3.70;;;;;;;18.10;60.90;100393.98;107293;1292;23715;-78
2022/10/25 12:26:57;;;;;;;8.70;3.70;;;;;;;18.06;61.32;100391.62;107390;1289;22664;-81
2022/10/25 12:29:54;;;;;;;7.10;3.40;;;;;;;18.05;61.67;100396.29;108005;1289;21949;-80
2022/10/25 12:33:03;;;;;;;6.90;3.80;;;;;;;18.00;62.05;100396.80;107787;1288;23032;-80
2022/10/25 12:35:50;;;;;;;11.50;4.40;;;;;;;17.99;62.56;100394.09;108324;1280;21930;-79
2022/10/25 12:38:39;;;;;;;7.40;3.30;;;;;;;18.02;62.72;100392.64;108243;1280;23696;-80
2022/10/25 12:41:43;;;;;;;5.80;2.90;;;;;;;18.03;62.97;100389.73;108235;1280;23634;-78
2022/10/25 12:44:33;;;;;;;10.30;3.40;;;;;;;18.03;63.17;100385.68;108367;1282;21940;-79
2022/10/25 12:48:22;;;;;;;14.60;10.00;;;;;;;18.07;63.07;100386.67;108422;1283;21947;-80
2022/10/25 12:51:37;;;;;;;5.40;3.10;;;;;;;18.04;62.71;100389.52;107806;1286;24432;-81
2022/10/25 12:54:38;;;;;;;5.70;2.70;;;;;;;18.03;62.77;100388.00;107528;1289;21943;-81
2022/10/25 12:58:37;;;;;;;6.70;3.20;;;;;;;18.00;62.83;100393.79;107666;1289;22644;-81
2022/10/25 13:02:20;;;;;;;5.70;2.70;;;;;;;17.97;62.89;100392.77;107694;1287;23080;-79
2022/10/25 13:05:27;;;;;;;6.00;2.90;;;;;;;17.91;62.63;100392.65;107107;1298;21962;-79
2022/10/25 13:08:07;;;;;;;7.10;2.90;;;;;;;17.85;62.37;100390.61;106379;1303;21992;-79
2022/10/25 13:11:02;;;;;;;4.60;2.70;;;;;;;17.77;62.36;100395.64;106174;1304;21964;-78
2022/10/25 13:13:54;;;;;;;9.60;2.80;;;;;;;17.71;62.22;100394.69;106163;1302;23176;-80
2022/10/25 13:16:33;;;;;;;7.80;3.00;;;;;;;17.63;61.96;100395.37;106064;1303;23110;-79
2022/10/25 13:19:27;;;;;;;7.10;3.10;;;;;;;17.49;62.08;100394.16;105741;1309;23055;-79
2022/10/25 13:21:54;;;;;;;9.20;3.20;;;;;;;17.44;62.05;100396.98;105683;1308;21991;-80
2022/10/25 13:24:44;;;;;;;13.80;3.50;;;;;;;17.36;62.06;100397.13;105813;1306;21965;-80
2022/10/25 13:27:17;;;;;;;8.60;3.20;;;;;;;17.29;62.25;100397.25;106308;1297;21962;-79
2022/10/25 13:30:11;;;;;;;8.10;4.00;;;;;;;17.26;62.43;100397.11;107084;1294;21981;-80
2022/10/25 13:33:15;;;;;;;9.70;3.60;;;;;;;17.24;62.30;100396.18;107385;1295;22007;-79
2022/10/25 13:36:08;;;;;;;;;;;;;;;;;;;;;
2022/10/25 13:39:01;;;;;;;9.00;5.70;;;;;;;17.23;62.80;100399.04;107487;1294;24309;-84
2022/10/25 13:41:47;;;;;;;8.30;3.70;;;;;;;17.27;62.99;100400.20;107897;1289;22413;-80
2022/10/25 13:44:25;;;;;;;7.50;3.40;;;;;;;17.29;63.06;100396.88;108428;1280;23750;-80
2022/10/25 13:47:12;;;;;;;6.90;3.00;;;;;;;17.33;63.14;100396.27;108561;1283;23097;-80
2022/10/25 13:49:50;;;;;;;7.00;3.60;;;;;;;17.38;63.17;100396.00;108468;1283;22999;-79
2022/10/25 13:52:32;;;;;;;9.40;4.00;;;;;;;17.42;63.11;100396.09;108157;1280;21960;-78
2022/10/25 13:55:17;;;;;;;11.10;3.80;;;;;;;17.41;62.92;100400.34;108192;1281;24519;-80
2022/10/25 13:57:57;;;;;;;7.40;3.60;;;;;;;17.41;62.81;100403.18;108365;1280;23529;-79
2022/10/25 14:00:53;;;;;;;5.40;4.30;;;;;;;17.39;62.54;100409.98;107882;1280;21938;-79
2022/10/25 14:03:44;;;;;;;6.90;3.80;;;;;;;17.35;62.35;100413.42;108125;1286;22950;-80
2022/10/25 14:06:25;;;;;;;6.20;2.40;;;;;;;17.30;61.97;100414.29;108173;1284;21963;-80
2022/10/25 14:09:39;;;;;;;7.80;3.10;;;;;;;17.26;61.84;100414.86;108450;1280;22063;-81
2022/10/25 14:12:16;;;;;;;8.10;3.00;;;;;;;17.20;61.74;100415.27;108097;1285;23173;-80
2022/10/25 14:15:01;;;;;;;5.50;2.80;;;;;;;17.18;61.72;100419.61;107825;1283;21998;-81
2022/10/25 14:17:45;;;;;;;5.70;3.00;;;;;;;17.14;61.60;100419.32;108057;1284;21957;-81
2022/10/25 14:20:28;;;;;;;9.00;3.20;;;;;;;17.12;61.53;100423.11;108081;1278;21932;-82
2022/10/25 14:23:13;;;;;;;7.70;3.60;;;;;;;17.13;61.64;100425.21;108538;1280;21995;-83
2022/10/25 14:25:58;;;;;;;7.60;4.20;;;;;;;17.14;61.61;100428.43;108381;1281;22068;-82
2022/10/25 14:28:35;;;;;;;16.30;5.80;;;;;;;17.15;61.55;100427.34;108404;1275;21940;-82
2022/10/25 14:31:15;;;;;;;;;;;;;;;17.15;61.63;100426.27;108423;1280;21920;-82
2022/10/25 14:33:58;;;;;;;14.30;12.80;;;;;;;17.08;61.81;100423.40;108478;1280;23902;-82
2022/10/25 14:36:40;;;;;;;11.50;7.80;;;;;;;17.08;61.91;100423.05;108624;1280;21970;-82
2022/10/25 14:39:22;;;;;;;11.10;7.40;;;;;;;17.09;61.90;100424.38;108692;1281;23095;-81
2022/10/25 14:42:14;;;;;;;12.10;5.70;;;;;;;17.08;61.92;100430.27;108583;1272;23060;-83
2022/10/25 14:45:46;;;;;;;7.30;3.50;;;;;;;17.01;62.00;100433.14;108688;1279;22527;-85
2022/10/25 14:48:35;;;;;;;7.30;4.00;;;;;;;17.00;62.16;100435.70;108848;1280;22340;-86
2022/10/25 14:51:23;;;;;;;7.60;3.70;;;;;;;17.01;62.32;100438.24;108781;1278;21954;-87
2022/10/25 14:54:39;;;;;;;9.40;4.30;;;;;;;17.01;62.60;100433.50;108646;1278;21997;-82
2022/10/25 14:58:00;;;;;;;;;;;;;;;;;;;;;
2022/10/25 15:01:16;;;;;;;;;;;;;;;;;;;;;
2022/10/25 15:04:03;;;;;;;17.50;9.60;;;;;;;16.91;63.66;100445.52;108553;1285;21950;-87
2022/10/25 15:06:41;;;;;;;10.20;6.50;;;;;;;16.89;63.79;100449.73;108511;1275;22398;-85
2022/10/25 15:09:57;;;;;;;8.10;4.60;;;;;;;16.78;64.00;100450.73;108413;1283;21953;-85
2022/10/25 15:12:43;;;;;;;6.80;3.90;;;;;;;16.73;64.04;100446.14;108246;1284;21980;-85
2022/10/25 15:15:43;;;;;;;8.00;3.30;;;;;;;16.67;64.02;100444.07;108265;1281;22603;-84
2022/10/25 15:18:38;;;;;;;6.30;3.80;;;;;;;16.58;63.82;100444.59;108597;1280;21941;-84
2022/10/25 15:22:29;;;;;;;7.10;4.00;;;;;;;16.50;63.90;100444.74;108693;1274;21953;-82
2022/10/25 15:25:02;;;;;;;11.60;6.90;;;;;;;16.40;63.93;100450.58;108411;1281;21990;-82
2022/10/25 15:28:03;;;;;;;10.40;9.20;;;;;;;16.33;63.88;100455.06;108418;1281;22959;-80
2022/10/25 15:30:47;;;;;;;13.90;12.30;;;;;;;16.22;63.77;100452.70;108490;1275;21960;-81
2022/10/25 15:33:43;;;;;;;9.60;8.40;;;;;;;16.14;63.67;100450.59;108607;1282;21967;-81
2022/10/25 15:36:28;;;;;;;8.10;5.00;;;;;;;16.04;63.77;100449.73;108565;1280;21937;-82
2022/10/25 15:39:29;;;;;;;12.80;11.40;;;;;;;15.97;63.66;100451.02;108442;1279;23136;-84
2022/10/25 15:42:36;;;;;;;14.10;6.70;;;;;;;15.88;63.63;100449.31;108787;1278;21936;-87
2022/10/25 15:45:25;;;;;;;7.10;4.00;;;;;;;15.80;63.80;100455.03;108779;1283;21944;-86
2022/10/25 15:48:20;;;;;;;9.60;4.60;;;;;;;15.76;64.01;100461.39;108693;1281;21945;-83
2022/10/25 15:50:56;;;;;;;7.80;4.40;;;;;;;15.72;64.06;100466.17;108461;1281;21937;-84
2022/10/25 15:53:36;;;;;;;9.60;6.10;;;;;;;15.67;64.12;100469.39;108327;1280;21935;-85
2022/10/25 15:56:28;;;;;;;;;;;;;;;;;;;;;
2022/10/25 15:59:29;;;;;;;9.50;6.20;;;;;;;15.56;64.48;100472.27;108796;1280;23080;-82
2022/10/25 16:02:30;;;;;;;10.40;7.50;;;;;;;15.51;64.62;100469.27;106374;1280;3188537;-82
2022/10/25 16:05:27;;;;;;;12.40;7.80;;;;;;;15.49;64.86;100477.45;108834;1280;21965;-85
2022/10/25 16:08:02;;;;;;;18.70;11.60;;;;;;;15.47;65.06;100478.77;109054;1280;21953;-85
2022/10/25 16:10:32;;;;;;;20.90;12.10;;;;;;;15.47;65.33;100488.96;108067;1283;21970;-79
2022/10/25 16:13:11;;;;;;;14.50;10.60;;;;;;;15.45;65.53;100494.13;108265;1283;23131;-77
2022/10/25 16:15:42;;;;;;;12.60;7.20;;;;;;;15.42;65.83;100497.81;108170;1280;23055;-79
2022/10/25 16:18:14;;;;;;;11.40;8.70;;;;;;;15.40;66.05;100501.60;108580;1280;23646;-82
2022/10/25 16:20:46;;;;;;;16.20;10.30;;;;;;;15.36;66.30;100503.78;108343;1282;23651;-85
2022/10/25 16:23:22;;;;;;;13.10;8.60;;;;;;;15.34;66.54;100515.27;108742;1282;21945;-80
2022/10/25 16:25:57;;;;;;;12.40;7.30;;;;;;;15.31;66.77;100516.35;108293;1284;21968;-80
2022/10/25 16:28:39;;;;;;;11.90;5.80;;;;;;;15.26;66.88;100516.77;108114;1284;24296;-78
2022/10/25 16:31:10;;;;;;;7.50;5.70;;;;;;;15.21;66.92;100516.14;108312;1280;22032;-80
2022/10/25 16:33:50;;;;;;;9.90;6.20;;;;;;;15.16;66.99;100514.46;108469;1284;21967;-79
2022/10/25 16:36:23;;;;;;;10.70;5.80;;;;;;;15.11;67.02;100514.79;108491;1283;22878;-80
2022/10/25 16:38:53;;;;;;;9.30;6.50;;;;;;;15.06;67.03;100519.45;108465;1283;23028;-79
2022/10/25 16:41:28;;;;;;;11.70;7.20;;;;;;;15.02;67.01;100524.54;108322;1284;21959;-80
2022/10/25 16:44:01;;;;;;;9.30;5.60;;;;;;;14.96;67.03;100525.19;108315;1280;21946;-80
2022/10/25 16:46:36;;;;;;;5.30;4.10;;;;;;;14.87;66.88;100515.85;108136;1287;23854;-82
2022/10/25 16:49:10;;;;;;;8.00;5.00;;;;;;;14.79;66.89;100515.38;107991;1286;22180;-79
2022/10/25 16:51:43;;;;;;;6.40;5.10;;;;;;;14.75;67.13;100517.76;108063;1286;22005;-79
2022/10/25 16:54:14;;;;;;;9.50;4.70;;;;;;;14.72;67.09;100520.17;108282;1286;21946;-81
2022/10/25 16:56:52;;;;;;;34.60;31.40;;;;;;;14.68;67.01;100517.58;108249;1288;22446;-81
2022/10/25 16:59:30;;;;;;;17.20;15.60;;;;;;;14.64;67.21;100520.77;108294;1287;21963;-80
2022/10/25 17:02:04;;;;;;;8.70;7.80;;;;;;;14.62;67.19;100519.12;108083;1281;23080;-81
2022/10/25 17:04:33;;;;;;;7.70;6.00;;;;;;;14.59;67.15;100517.33;108668;1277;21942;-81
2022/10/25 17:07:05;;;;;;;7.90;5.10;;;;;;;14.56;67.23;100523.08;108873;1270;21970;-79